sensor_id;sensor_type;location;lat;lon;timestamp;pressure;altitude;pressure_sealevel;temperature;humidity
39295;BME280;52361;52.100;5.248;2022-09-03T00:00:55;101068.0;;;20.2;46.64
39295;BME280;52361;52.100;5.248;2022-09-03T00:04:21;101067.0;;;20.06;46.79
39295;BME280;52361;52.100;5.248;2022-09-03T00:06:10;101064.0;;;20.03;46.95
39295;BME280;52361;52.100;5.248;2022-09-03T00:07:55;101063.0;;;20.06;46.84
39295;BME280;52361;52.100;5.248;2022-09-03T00:09:39;101059.0;;;20.2;46.49
39295;BME280;52361;52.100;5.248;2022-09-03T00:13:02;101058.0;;;20.09;46.73
39295;BME280;52361;52.100;5.248;2022-09-03T00:16:33;101063.0;;;19.89;47.27
39295;BME280;52361;52.100;5.248;2022-09-03T00:18:18;101062.0;;;19.86;47.61
39295;BME280;52361;52.100;5.248;2022-09-03T00:20:02;101060.0;;;19.77;47.66
39295;BME280;52361;52.100;5.248;2022-09-03T00:23:26;101063.0;;;19.82;47.57
39295;BME280;52361;52.100;5.248;2022-09-03T00:25:08;101062.0;;;20.04;47.17
39295;BME280;52361;52.100;5.248;2022-09-03T00:26:51;101061.0;;;19.78;47.59
39295;BME280;52361;52.100;5.248;2022-09-03T00:28:35;101055.0;;;19.61;48.16
39295;BME280;52361;52.100;5.248;2022-09-03T00:30:16;101055.0;;;19.7;48.0
39295;BME280;52361;52.100;5.248;2022-09-03T00:33:39;101051.0;;;19.56;48.3
39295;BME280;52361;52.100;5.248;2022-09-03T00:35:21;101052.0;;;19.47;48.64
39295;BME280;52361;52.100;5.248;2022-09-03T10:38:41;101037.0;;;28.25;34.43
39295;BME280;52361;52.100;5.248;2022-09-03T10:40:29;101038.0;;;28.25;34.03
39295;BME280;52361;52.100;5.248;2022-09-03T10:44:27;101041.0;;;28.4;33.49
39295;BME280;52361;52.100;5.248;2022-09-03T10:46:25;101041.0;;;28.38;33.92
39295;BME280;52361;52.100;5.248;2022-09-03T10:48:15;101042.0;;;28.59;33.76
39295;BME280;52361;52.100;5.248;2022-09-03T10:50:26;101042.0;;;28.87;33.71
39295;BME280;52361;52.100;5.248;2022-09-03T10:54:11;101036.0;;;28.66;32.89
39295;BME280;52361;52.100;5.248;2022-09-03T10:55:58;101033.0;;;28.4;32.92
39295;BME280;52361;52.100;5.248;2022-09-03T10:57:47;101034.0;;;28.52;33.28
39295;BME280;52361;52.100;5.248;2022-09-03T10:59:37;101043.0;;;28.66;32.89
39295;BME280;52361;52.100;5.248;2022-09-03T11:01:27;101037.0;;;28.34;32.87
39295;BME280;52361;52.100;5.248;2022-09-03T11:05:16;101025.0;;;28.5;33.83
39295;BME280;52361;52.100;5.248;2022-09-03T11:07:00;101032.0;;;28.57;33.17
39295;BME280;52361;52.100;5.248;2022-09-03T11:08:41;101035.0;;;28.58;32.9
39295;BME280;52361;52.100;5.248;2022-09-03T11:10:21;101037.0;;;28.67;33.1
39295;BME280;52361;52.100;5.248;2022-09-03T11:12:04;101038.0;;;28.38;33.14
39295;BME280;52361;52.100;5.248;2022-09-03T11:13:47;101028.0;;;28.52;33.21
39295;BME280;52361;52.100;5.248;2022-09-03T11:17:10;101028.0;;;28.52;33.8
39295;BME280;52361;52.100;5.248;2022-09-03T11:18:54;101028.0;;;28.86;32.89
39295;BME280;52361;52.100;5.248;2022-09-03T11:20:33;101019.0;;;29.04;32.8
39295;BME280;52361;52.100;5.248;2022-09-03T11:22:10;101020.0;;;29.21;33.0
39295;BME280;52361;52.100;5.248;2022-09-03T11:25:42;101028.0;;;29.21;32.24
39295;BME280;52361;52.100;5.248;2022-09-03T11:27:41;101025.0;;;29.26;32.24
39295;BME280;52361;52.100;5.248;2022-09-03T11:29:33;101022.0;;;29.15;32.29
39295;BME280;52361;52.100;5.248;2022-09-03T11:31:19;101021.0;;;29.29;32.08
39295;BME280;52361;52.100;5.248;2022-09-03T11:33:06;101020.0;;;29.18;32.58
39295;BME280;52361;52.100;5.248;2022-09-03T11:34:45;101022.0;;;29.14;32.49
39295;BME280;52361;52.100;5.248;2022-09-03T11:38:07;101026.0;;;29.2;32.79
39295;BME280;52361;52.100;5.248;2022-09-03T11:39:58;101014.0;;;29.23;32.36
39295;BME280;52361;52.100;5.248;2022-09-03T11:41:39;101015.0;;;29.19;32.32
39295;BME280;52361;52.100;5.248;2022-09-03T11:43:25;101013.0;;;29.14;32.44
39295;BME280;52361;52.100;5.248;2022-09-03T11:47:15;101006.0;;;29.14;32.64
39295;BME280;52361;52.100;5.248;2022-09-03T11:50:31;101010.0;;;29.21;32.4
39295;BME280;52361;52.100;5.248;2022-09-03T11:52:09;101011.0;;;28.96;32.37
39295;BME280;52361;52.100;5.248;2022-09-03T11:53:53;101006.0;;;29.09;32.81
39295;BME280;52361;52.100;5.248;2022-09-03T11:57:28;101014.0;;;29.07;32.36
39295;BME280;52361;52.100;5.248;2022-09-03T11:59:23;101012.0;;;29.28;32.82
39295;BME280;52361;52.100;5.248;2022-09-03T12:01:02;101014.0;;;29.18;32.64
39295;BME280;52361;52.100;5.248;2022-09-03T12:02:46;101007.0;;;29.44;32.53
39295;BME280;52361;52.100;5.248;2022-09-03T12:04:30;101017.0;;;29.29;32.71
39295;BME280;52361;52.100;5.248;2022-09-03T12:06:21;101015.0;;;29.31;32.5
39295;BME280;52361;52.100;5.248;2022-09-03T12:08:30;101017.0;;;29.06;32.68
39295;BME280;52361;52.100;5.248;2022-09-03T12:10:34;101015.0;;;29.12;32.74
39295;BME280;52361;52.100;5.248;2022-09-03T12:14:19;101015.0;;;29.14;32.87
39295;BME280;52361;52.100;5.248;2022-09-03T12:16:10;101016.0;;;29.15;32.85
39295;BME280;52361;52.100;5.248;2022-09-03T12:18:33;101018.0;;;29.01;33.15
39295;BME280;52361;52.100;5.248;2022-09-03T12:20:13;101014.0;;;29.07;33.1
39295;BME280;52361;52.100;5.248;2022-09-03T12:21:50;101018.0;;;28.93;33.21
39295;BME280;52361;52.100;5.248;2022-09-03T12:23:30;101020.0;;;28.97;33.39
39295;BME280;52361;52.100;5.248;2022-09-03T12:25:08;101018.0;;;28.97;33.26
39295;BME280;52361;52.100;5.248;2022-09-03T12:28:25;101019.0;;;29.32;32.8
39295;BME280;52361;52.100;5.248;2022-09-03T12:30:14;101017.0;;;29.1;33.0
39295;BME280;52361;52.100;5.248;2022-09-03T12:31:51;101017.0;;;29.38;33.03
39295;BME280;52361;52.100;5.248;2022-09-03T12:33:28;101014.0;;;29.58;32.54
39295;BME280;52361;52.100;5.248;2022-09-03T12:36:53;101012.0;;;29.61;32.62
39295;BME280;52361;52.100;5.248;2022-09-03T12:38:31;101011.0;;;29.63;32.89
39295;BME280;52361;52.100;5.248;2022-09-03T12:40:15;101015.0;;;29.81;32.35
39295;BME280;52361;52.100;5.248;2022-09-03T12:41:56;101016.0;;;29.81;32.93
39295;BME280;52361;52.100;5.248;2022-09-03T12:45:19;101013.0;;;30.02;32.01
39295;BME280;52361;52.100;5.248;2022-09-03T12:46:59;101014.0;;;30.15;32.6
39295;BME280;52361;52.100;5.248;2022-09-03T12:48:36;101016.0;;;30.34;32.96
39295;BME280;52361;52.100;5.248;2022-09-03T12:50:15;101010.0;;;30.17;31.95
39295;BME280;52361;52.100;5.248;2022-09-03T12:53:37;101015.0;;;30.3;32.29
39295;BME280;52361;52.100;5.248;2022-09-03T12:55:23;101016.0;;;30.57;31.98
39295;BME280;52361;52.100;5.248;2022-09-03T12:57:03;101008.0;;;30.19;31.28
39295;BME280;52361;52.100;5.248;2022-09-03T12:58:48;101008.0;;;29.83;31.98
39295;BME280;52361;52.100;5.248;2022-09-03T13:00:27;101011.0;;;29.67;32.17
39295;BME280;52361;52.100;5.248;2022-09-03T13:04:01;101013.0;;;29.64;32.49
39295;BME280;52361;52.100;5.248;2022-09-03T13:07:24;101016.0;;;30.35;31.95
39295;BME280;52361;52.100;5.248;2022-09-03T13:12:29;101015.0;;;30.58;30.85
39295;BME280;52361;52.100;5.248;2022-09-03T13:14:11;101017.0;;;30.81;31.33
39295;BME280;52361;52.100;5.248;2022-09-03T13:16:25;101015.0;;;31.0;30.53
39295;BME280;52361;52.100;5.248;2022-09-03T13:18:37;101014.0;;;31.13;30.09
39295;BME280;52361;52.100;5.248;2022-09-03T13:20:28;101012.0;;;31.3;29.96
39295;BME280;52361;52.100;5.248;2022-09-03T13:22:12;101011.0;;;31.28;29.39
39295;BME280;52361;52.100;5.248;2022-09-03T13:24:17;101012.0;;;31.82;29.46
39295;BME280;52361;52.100;5.248;2022-09-03T13:26:07;101010.0;;;32.25;29.05
39295;BME280;52361;52.100;5.248;2022-09-03T13:27:55;101013.0;;;32.5;28.28
39295;BME280;52361;52.100;5.248;2022-09-03T13:31:31;101014.0;;;32.36;28.91
39295;BME280;52361;52.100;5.248;2022-09-03T13:33:19;101011.0;;;32.47;29.04
39295;BME280;52361;52.100;5.248;2022-09-03T13:35:01;101013.0;;;32.65;28.88
39295;BME280;52361;52.100;5.248;2022-09-03T13:36:44;101018.0;;;32.85;28.33
39295;BME280;52361;52.100;5.248;2022-09-03T13:38:27;101021.0;;;33.06;27.57
39295;BME280;52361;52.100;5.248;2022-09-03T13:42:00;101017.0;;;32.96;27.36
39295;BME280;52361;52.100;5.248;2022-09-03T13:43:40;101013.0;;;33.01;27.56
39295;BME280;52361;52.100;5.248;2022-09-03T13:45:27;101013.0;;;32.69;27.18
39295;BME280;52361;52.100;5.248;2022-09-03T13:47:09;101011.0;;;32.67;27.64
39295;BME280;52361;52.100;5.248;2022-09-03T13:51:46;101008.0;;;32.85;28.12
39295;BME280;52361;52.100;5.248;2022-09-03T13:57:19;101011.0;;;33.37;26.52
39295;BME280;52361;52.100;5.248;2022-09-03T14:00:45;101006.0;;;33.15;27.03
39295;BME280;52361;52.100;5.248;2022-09-03T14:02:30;101007.0;;;33.56;26.34
39295;BME280;52361;52.100;5.248;2022-09-03T14:04:19;101007.0;;;33.74;26.46
39295;BME280;52361;52.100;5.248;2022-09-03T14:06:04;101008.0;;;33.12;26.59
39295;BME280;52361;52.100;5.248;2022-09-03T14:07:50;101001.0;;;33.43;27.08
39295;BME280;52361;52.100;5.248;2022-09-03T14:09:39;101002.0;;;33.35;26.68
39295;BME280;52361;52.100;5.248;2022-09-03T14:14:57;101002.0;;;33.42;26.66
39295;BME280;52361;52.100;5.248;2022-09-03T14:16:42;100998.0;;;33.46;26.43
39295;BME280;52361;52.100;5.248;2022-09-03T14:18:34;101005.0;;;33.05;27.6
39295;BME280;52361;52.100;5.248;2022-09-03T14:20:19;101005.0;;;33.44;27.07
39295;BME280;52361;52.100;5.248;2022-09-03T14:23:45;101002.0;;;33.25;26.73
39295;BME280;52361;52.100;5.248;2022-09-03T14:25:27;101005.0;;;33.53;26.59
39295;BME280;52361;52.100;5.248;2022-09-03T14:27:04;101009.0;;;33.56;26.76
39295;BME280;52361;52.100;5.248;2022-09-03T14:28:43;101006.0;;;32.39;27.65
39295;BME280;52361;52.100;5.248;2022-09-03T14:30:40;101008.0;;;32.4;27.99
39295;BME280;52361;52.100;5.248;2022-09-03T14:34:11;101008.0;;;32.71;28.15
39295;BME280;52361;52.100;5.248;2022-09-03T14:36:02;101001.0;;;32.24;28.75
39295;BME280;52361;52.100;5.248;2022-09-03T14:38:03;100998.0;;;31.87;29.11
39295;BME280;52361;52.100;5.248;2022-09-03T14:40:02;101000.0;;;32.07;28.76
39295;BME280;52361;52.100;5.248;2022-09-03T14:41:59;100998.0;;;31.83;28.19
39295;BME280;52361;52.100;5.248;2022-09-03T14:43:57;100998.0;;;31.57;27.98
39295;BME280;52361;52.100;5.248;2022-09-03T14:45:51;101000.0;;;30.98;28.42
39295;BME280;52361;52.100;5.248;2022-09-03T14:48:07;100998.0;;;30.95;28.2
39295;BME280;52361;52.100;5.248;2022-09-03T14:50:03;101003.0;;;30.71;28.45
39295;BME280;52361;52.100;5.248;2022-09-03T14:52:08;101001.0;;;30.74;28.41
39295;BME280;52361;52.100;5.248;2022-09-03T14:54:26;100999.0;;;30.53;28.45
39295;BME280;52361;52.100;5.248;2022-09-03T14:56:36;101001.0;;;30.3;29.34
39295;BME280;52361;52.100;5.248;2022-09-03T14:58:24;101001.0;;;30.3;29.25
39295;BME280;52361;52.100;5.248;2022-09-03T15:00:14;100996.0;;;29.99;29.38
39295;BME280;52361;52.100;5.248;2022-09-03T15:02:10;101001.0;;;29.54;29.85
39295;BME280;52361;52.100;5.248;2022-09-03T15:04:44;101002.0;;;29.85;29.91
39295;BME280;52361;52.100;5.248;2022-09-03T15:06:43;101005.0;;;29.98;29.51
39295;BME280;52361;52.100;5.248;2022-09-03T15:08:38;101006.0;;;30.0;29.72
39295;BME280;52361;52.100;5.248;2022-09-03T15:10:27;101005.0;;;29.84;29.87
39295;BME280;52361;52.100;5.248;2022-09-03T15:14:00;100996.0;;;29.83;30.22
39295;BME280;52361;52.100;5.248;2022-09-03T15:15:53;100998.0;;;29.92;30.17
39295;BME280;52361;52.100;5.248;2022-09-03T15:17:46;100997.0;;;29.81;30.08
39295;BME280;52361;52.100;5.248;2022-09-03T15:21:42;101005.0;;;29.46;30.78
39295;BME280;52361;52.100;5.248;2022-09-03T15:23:41;101002.0;;;29.61;30.5
39295;BME280;52361;52.100;5.248;2022-09-03T15:25:38;100999.0;;;29.58;30.37
39295;BME280;52361;52.100;5.248;2022-09-03T15:27:37;101006.0;;;29.51;31.04
39295;BME280;52361;52.100;5.248;2022-09-03T15:29:50;101005.0;;;29.48;31.0
39295;BME280;52361;52.100;5.248;2022-09-03T15:31:43;101009.0;;;29.58;30.81
39295;BME280;52361;52.100;5.248;2022-09-03T15:33:28;101011.0;;;29.79;30.18
39295;BME280;52361;52.100;5.248;2022-09-03T15:37:11;101010.0;;;29.66;30.17
39295;BME280;52361;52.100;5.248;2022-09-03T15:38:56;101011.0;;;29.69;30.12
39295;BME280;52361;52.100;5.248;2022-09-03T15:40:40;101015.0;;;29.69;30.47
39295;BME280;52361;52.100;5.248;2022-09-03T15:42:26;101009.0;;;29.9;30.35
39295;BME280;52361;52.100;5.248;2022-09-03T15:44:07;101013.0;;;29.72;30.86
39295;BME280;52361;52.100;5.248;2022-09-03T15:45:51;101016.0;;;29.72;30.53
39295;BME280;52361;52.100;5.248;2022-09-03T15:49:25;101015.0;;;29.72;30.75
39295;BME280;52361;52.100;5.248;2022-09-03T15:51:24;101013.0;;;29.51;30.96
39295;BME280;52361;52.100;5.248;2022-09-03T15:53:14;101011.0;;;29.49;30.96
39295;BME280;52361;52.100;5.248;2022-09-03T15:55:01;101015.0;;;29.43;31.17
39295;BME280;52361;52.100;5.248;2022-09-03T15:56:49;101013.0;;;29.57;30.89
39295;BME280;52361;52.100;5.248;2022-09-03T15:58:33;101008.0;;;29.6;31.15
39295;BME280;52361;52.100;5.248;2022-09-03T16:01:56;101009.0;;;29.56;30.98
39295;BME280;52361;52.100;5.248;2022-09-03T16:03:53;101010.0;;;29.38;31.01
39295;BME280;52361;52.100;5.248;2022-09-03T16:05:40;101011.0;;;29.36;31.44
39295;BME280;52361;52.100;5.248;2022-09-03T16:07:25;101010.0;;;29.4;31.8
39295;BME280;52361;52.100;5.248;2022-09-03T16:09:14;101006.0;;;29.44;31.87
39295;BME280;52361;52.100;5.248;2022-09-03T16:11:00;101009.0;;;29.53;31.67
39295;BME280;52361;52.100;5.248;2022-09-03T16:14:34;101012.0;;;29.69;31.65
39295;BME280;52361;52.100;5.248;2022-09-03T16:16:20;101011.0;;;29.72;31.11
39295;BME280;52361;52.100;5.248;2022-09-03T16:18:01;101012.0;;;29.73;31.33
39295;BME280;52361;52.100;5.248;2022-09-03T16:19:45;101014.0;;;29.56;31.37
39295;BME280;52361;52.100;5.248;2022-09-03T16:21:34;101012.0;;;29.53;31.53
39295;BME280;52361;52.100;5.248;2022-09-03T16:25:00;101014.0;;;29.71;31.34
39295;BME280;52361;52.100;5.248;2022-09-03T16:28:27;101020.0;;;29.47;31.81
39295;BME280;52361;52.100;5.248;2022-09-03T16:30:08;101020.0;;;29.38;31.73
39295;BME280;52361;52.100;5.248;2022-09-03T16:31:58;101022.0;;;29.37;31.75
39295;BME280;52361;52.100;5.248;2022-09-03T16:35:33;101023.0;;;29.33;31.52
39295;BME280;52361;52.100;5.248;2022-09-03T16:37:22;101020.0;;;29.41;31.58
39295;BME280;52361;52.100;5.248;2022-09-03T16:39:15;101023.0;;;29.33;31.9
39295;BME280;52361;52.100;5.248;2022-09-03T16:40:59;101022.0;;;29.01;32.29
39295;BME280;52361;52.100;5.248;2022-09-03T16:42:51;101019.0;;;28.93;32.42
39295;BME280;52361;52.100;5.248;2022-09-03T16:44:46;101021.0;;;29.11;32.11
39295;BME280;52361;52.100;5.248;2022-09-03T16:46:34;101021.0;;;29.03;32.4
39295;BME280;52361;52.100;5.248;2022-09-03T16:50:14;101021.0;;;29.19;32.26
39295;BME280;52361;52.100;5.248;2022-09-03T16:52:09;101018.0;;;29.31;31.98
39295;BME280;52361;52.100;5.248;2022-09-03T16:54:00;101015.0;;;28.95;32.54
39295;BME280;52361;52.100;5.248;2022-09-03T16:55:55;101018.0;;;29.09;32.5
39295;BME280;52361;52.100;5.248;2022-09-03T16:57:53;101016.0;;;29.1;32.42
39295;BME280;52361;52.100;5.248;2022-09-03T16:59:49;101015.0;;;29.08;32.03
39295;BME280;52361;52.100;5.248;2022-09-03T17:01:58;101016.0;;;29.17;32.25
39295;BME280;52361;52.100;5.248;2022-09-03T17:03:54;101014.0;;;29.04;32.39
39295;BME280;52361;52.100;5.248;2022-09-03T17:05:45;101015.0;;;29.11;32.24
39295;BME280;52361;52.100;5.248;2022-09-03T17:07:43;101019.0;;;29.27;32.36
39295;BME280;52361;52.100;5.248;2022-09-03T17:09:37;101019.0;;;29.11;33.08
39295;BME280;52361;52.100;5.248;2022-09-03T17:13:40;101019.0;;;28.96;32.71
39295;BME280;52361;52.100;5.248;2022-09-03T17:17:08;101030.0;;;28.98;32.86
39295;BME280;52361;52.100;5.248;2022-09-03T17:18:54;101024.0;;;28.97;32.86
39295;BME280;52361;52.100;5.248;2022-09-03T17:20:47;101024.0;;;29.15;32.71
39295;BME280;52361;52.100;5.248;2022-09-03T17:22:36;101024.0;;;29.12;32.74
39295;BME280;52361;52.100;5.248;2022-09-03T17:24:31;101026.0;;;29.1;32.67
39295;BME280;52361;52.100;5.248;2022-09-03T17:26:20;101026.0;;;29.09;32.68
39295;BME280;52361;52.100;5.248;2022-09-03T17:30:03;101030.0;;;28.88;33.12
39295;BME280;52361;52.100;5.248;2022-09-03T17:31:57;101034.0;;;28.97;33.4
39295;BME280;52361;52.100;5.248;2022-09-03T17:33:54;101039.0;;;29.04;33.17
39295;BME280;52361;52.100;5.248;2022-09-03T17:35:40;101030.0;;;28.65;34.08
39295;BME280;52361;52.100;5.248;2022-09-03T17:37:30;101033.0;;;28.64;34.11
39295;BME280;52361;52.100;5.248;2022-09-03T17:39:27;101032.0;;;28.66;34.24
39295;BME280;52361;52.100;5.248;2022-09-03T17:41:25;101035.0;;;28.51;34.49
39295;BME280;52361;52.100;5.248;2022-09-03T17:43:17;101036.0;;;28.37;34.46
39295;BME280;52361;52.100;5.248;2022-09-03T17:45:08;101038.0;;;28.25;35.17
39295;BME280;52361;52.100;5.248;2022-09-03T17:48:48;101043.0;;;27.96;36.08
39295;BME280;52361;52.100;5.248;2022-09-03T17:52:14;101045.0;;;27.48;37.64
39295;BME280;52361;52.100;5.248;2022-09-03T17:54:03;101044.0;;;27.29;37.5
39295;BME280;52361;52.100;5.248;2022-09-03T17:55:43;101048.0;;;27.08;38.17
39295;BME280;52361;52.100;5.248;2022-09-03T17:59:20;101055.0;;;26.95;38.67
39295;BME280;52361;52.100;5.248;2022-09-03T18:01:10;101055.0;;;26.86;39.49
39295;BME280;52361;52.100;5.248;2022-09-03T18:02:51;101055.0;;;26.63;40.31
39295;BME280;52361;52.100;5.248;2022-09-03T18:04:39;101060.0;;;26.46;40.07
39295;BME280;52361;52.100;5.248;2022-09-03T18:06:31;101067.0;;;26.39;40.76
39295;BME280;52361;52.100;5.248;2022-09-03T18:08:14;101066.0;;;26.16;41.02
39295;BME280;52361;52.100;5.248;2022-09-03T18:11:46;101067.0;;;25.93;41.58
39295;BME280;52361;52.100;5.248;2022-09-03T18:13:34;101072.0;;;25.77;42.29
39295;BME280;52361;52.100;5.248;2022-09-03T18:15:25;101075.0;;;25.68;42.46
39295;BME280;52361;52.100;5.248;2022-09-03T18:17:04;101076.0;;;25.58;43.06
39295;BME280;52361;52.100;5.248;2022-09-03T18:18:49;101075.0;;;25.51;43.44
39295;BME280;52361;52.100;5.248;2022-09-03T20:12:06;101181.0;;;21.93;58.01
39295;BME280;52361;52.100;5.248;2022-09-03T20:14:15;101184.0;;;21.88;58.43
39295;BME280;52361;52.100;5.248;2022-09-03T20:15:59;101178.0;;;21.81;58.66
39295;BME280;52361;52.100;5.248;2022-09-03T20:21:34;101181.0;;;21.78;58.33
39295;BME280;52361;52.100;5.248;2022-09-03T20:23:19;101182.0;;;21.81;58.32
39295;BME280;52361;52.100;5.248;2022-09-03T20:25:12;101175.0;;;21.67;58.99
39295;BME280;52361;52.100;5.248;2022-09-03T20:27:29;101178.0;;;21.5;59.5
39295;BME280;52361;52.100;5.248;2022-09-03T20:29:28;101177.0;;;21.26;60.71
39295;BME280;52361;52.100;5.248;2022-09-03T20:31:13;101183.0;;;21.13;60.78
39295;BME280;52361;52.100;5.248;2022-09-03T20:33:07;101181.0;;;21.15;60.59
39295;BME280;52361;52.100;5.248;2022-09-03T20:36:52;101180.0;;;21.21;60.54
39295;BME280;52361;52.100;5.248;2022-09-03T20:40:44;101183.0;;;21.23;60.73
39295;BME280;52361;52.100;5.248;2022-09-03T20:42:36;101185.0;;;21.11;61.1
39295;BME280;52361;52.100;5.248;2022-09-03T20:44:27;101184.0;;;20.98;61.97
39295;BME280;52361;52.100;5.248;2022-09-03T20:46:23;101185.0;;;21.05;61.8
39295;BME280;52361;52.100;5.248;2022-09-03T20:48:09;101188.0;;;21.18;61.67
39295;BME280;52361;52.100;5.248;2022-09-03T20:49:52;101190.0;;;21.14;61.76
39295;BME280;52361;52.100;5.248;2022-09-03T20:51:38;101193.0;;;20.97;62.14
39295;BME280;52361;52.100;5.248;2022-09-03T20:53:29;101192.0;;;20.86;62.51
39295;BME280;52361;52.100;5.248;2022-09-03T20:55:22;101196.0;;;20.71;62.76
39295;BME280;52361;52.100;5.248;2022-09-03T20:59:02;101199.0;;;20.64;63.52
39295;BME280;52361;52.100;5.248;2022-09-03T21:00:53;101196.0;;;20.62;63.41
39295;BME280;52361;52.100;5.248;2022-09-03T21:02:44;101202.0;;;20.64;63.48
39295;BME280;52361;52.100;5.248;2022-09-03T21:04:57;101202.0;;;20.68;63.62
39295;BME280;52361;52.100;5.248;2022-09-03T21:06:44;101202.0;;;20.69;63.71
39295;BME280;52361;52.100;5.248;2022-09-03T21:08:40;101201.0;;;20.61;63.85
39295;BME280;52361;52.100;5.248;2022-09-03T21:10:29;101205.0;;;20.51;64.17
39295;BME280;52361;52.100;5.248;2022-09-03T21:12:13;101202.0;;;20.6;63.83
39295;BME280;52361;52.100;5.248;2022-09-03T21:15:49;101200.0;;;20.63;63.47
39295;BME280;52361;52.100;5.248;2022-09-03T21:17:37;101203.0;;;20.58;63.71
39295;BME280;52361;52.100;5.248;2022-09-03T21:19:30;101205.0;;;20.51;64.08
39295;BME280;52361;52.100;5.248;2022-09-03T21:21:25;101202.0;;;20.5;64.55
39295;BME280;52361;52.100;5.248;2022-09-03T21:23:15;101207.0;;;20.36;65.06
39295;BME280;52361;52.100;5.248;2022-09-03T21:24:57;101208.0;;;20.23;66.16
39295;BME280;52361;52.100;5.248;2022-09-03T21:28:27;101211.0;;;20.18;66.41
39295;BME280;52361;52.100;5.248;2022-09-03T21:30:11;101211.0;;;20.18;66.6
39295;BME280;52361;52.100;5.248;2022-09-03T21:31:52;101215.0;;;20.2;66.16
39295;BME280;52361;52.100;5.248;2022-09-03T21:33:37;101211.0;;;20.05;66.66
39295;BME280;52361;52.100;5.248;2022-09-03T21:35:18;101214.0;;;20.09;66.86
39295;BME280;52361;52.100;5.248;2022-09-03T21:38:38;101212.0;;;20.23;66.45
39295;BME280;52361;52.100;5.248;2022-09-03T21:40:19;101209.0;;;20.27;66.47
39295;BME280;52361;52.100;5.248;2022-09-03T21:42:02;101207.0;;;20.29;66.1
39295;BME280;52361;52.100;5.248;2022-09-03T21:47:10;101209.0;;;20.06;66.85
39295;BME280;52361;52.100;5.248;2022-09-03T21:48:51;101210.0;;;19.93;67.47
39295;BME280;52361;52.100;5.248;2022-09-03T21:50:40;101212.0;;;19.93;67.72
39295;BME280;52361;52.100;5.248;2022-09-03T21:52:24;101217.0;;;19.96;67.67
39295;BME280;52361;52.100;5.248;2022-09-03T21:54:06;101220.0;;;19.86;67.81
39295;BME280;52361;52.100;5.248;2022-09-03T21:57:47;101220.0;;;19.97;67.45
39295;BME280;52361;52.100;5.248;2022-09-03T22:01:59;101225.0;;;20.09;66.95
39295;BME280;52361;52.100;5.248;2022-09-03T22:03:42;101228.0;;;20.06;67.05
39295;BME280;52361;52.100;5.248;2022-09-03T22:05:18;101224.0;;;20.02;67.56
39295;BME280;52361;52.100;5.248;2022-09-03T22:07:01;101226.0;;;20.07;67.16
39295;BME280;52361;52.100;5.248;2022-09-03T22:08:47;101230.0;;;19.95;68.11
39295;BME280;52361;52.100;5.248;2022-09-03T22:12:17;101233.0;;;19.89;68.27
39295;BME280;52361;52.100;5.248;2022-09-03T22:14:02;101230.0;;;19.91;68.44
39295;BME280;52361;52.100;5.248;2022-09-03T22:15:48;101233.0;;;19.96;68.17
39295;BME280;52361;52.100;5.248;2022-09-03T22:19:14;101228.0;;;19.66;69.48
39295;BME280;52361;52.100;5.248;2022-09-03T22:22:51;101227.0;;;19.61;69.8
39295;BME280;52361;52.100;5.248;2022-09-03T22:24:36;101227.0;;;19.5;70.08
39295;BME280;52361;52.100;5.248;2022-09-03T22:26:26;101234.0;;;19.66;69.67
39295;BME280;52361;52.100;5.248;2022-09-03T22:28:13;101234.0;;;19.54;69.72
39295;BME280;52361;52.100;5.248;2022-09-03T22:29:59;101232.0;;;19.66;69.22
39295;BME280;52361;52.100;5.248;2022-09-03T22:31:47;101237.0;;;19.59;70.23
39295;BME280;52361;52.100;5.248;2022-09-03T22:35:31;101236.0;;;19.77;69.11
39295;BME280;52361;52.100;5.248;2022-09-03T22:37:16;101237.0;;;20.11;67.55
39295;BME280;52361;52.100;5.248;2022-09-03T22:39:10;101239.0;;;19.97;68.1
39295;BME280;52361;52.100;5.248;2022-09-03T22:41:00;101237.0;;;19.8;69.44
39295;BME280;52361;52.100;5.248;2022-09-03T22:42:56;101236.0;;;19.91;68.44
39295;BME280;52361;52.100;5.248;2022-09-03T22:46:15;101239.0;;;19.84;68.69
39295;BME280;52361;52.100;5.248;2022-09-03T22:50:03;101235.0;;;19.52;70.05
39295;BME280;52361;52.100;5.248;2022-09-03T22:51:53;101234.0;;;19.41;70.66
39295;BME280;52361;52.100;5.248;2022-09-03T22:54:00;101232.0;;;19.5;70.34
39295;BME280;52361;52.100;5.248;2022-09-03T22:55:47;101235.0;;;19.34;71.36
39295;BME280;52361;52.100;5.248;2022-09-03T22:57:32;101241.0;;;19.11;72.16
39295;BME280;52361;52.100;5.248;2022-09-03T22:59:15;101245.0;;;18.95;72.95
39295;BME280;52361;52.100;5.248;2022-09-03T23:01:03;101249.0;;;18.96;72.95
39295;BME280;52361;52.100;5.248;2022-09-03T23:04:28;101247.0;;;19.04;72.83
39295;BME280;52361;52.100;5.248;2022-09-03T23:07:56;101265.0;;;19.37;71.13
39295;BME280;52361;52.100;5.248;2022-09-03T23:09:39;101268.0;;;19.48;70.55
39295;BME280;52361;52.100;5.248;2022-09-03T23:11:25;101266.0;;;19.57;70.7
39295;BME280;52361;52.100;5.248;2022-09-03T23:14:52;101267.0;;;19.53;70.53
39295;BME280;52361;52.100;5.248;2022-09-03T23:16:35;101270.0;;;19.63;70.11
39295;BME280;52361;52.100;5.248;2022-09-03T23:18:23;101263.0;;;19.78;69.28
39295;BME280;52361;52.100;5.248;2022-09-03T23:20:06;101267.0;;;19.98;68.63
39295;BME280;52361;52.100;5.248;2022-09-03T23:21:50;101272.0;;;19.95;68.87
39295;BME280;52361;52.100;5.248;2022-09-03T23:25:13;101273.0;;;19.97;68.72
39295;BME280;52361;52.100;5.248;2022-09-03T23:26:53;101280.0;;;19.82;69.63
39295;BME280;52361;52.100;5.248;2022-09-03T23:28:33;101275.0;;;19.66;70.44
39295;BME280;52361;52.100;5.248;2022-09-03T23:30:11;101276.0;;;19.63;70.37
39295;BME280;52361;52.100;5.248;2022-09-03T23:33:27;101276.0;;;19.75;70.23
39295;BME280;52361;52.100;5.248;2022-09-03T23:35:10;101275.0;;;19.68;70.41
39295;BME280;52361;52.100;5.248;2022-09-03T23:36:51;101273.0;;;19.77;69.91
39295;BME280;52361;52.100;5.248;2022-09-03T23:38:49;101275.0;;;19.59;71.38
39295;BME280;52361;52.100;5.248;2022-09-03T23:40:49;101275.0;;;19.43;72.05